Flight Track Log - Related Links

Times and Time Zones

All times are in EDT time to prevent confusion due to time zone crossing. See the N589H flight status page for this flight to view local times or setup timezone preferences in your user account.

Time Position Orientation Groundspeed Altitude Reporting Facility
EDT Latitude Longitude Course Direction KTS MPH feet Rate Location/Type
Wed 12:01:00 PM 19.2924 -72.7139 329° Northwest  Level FlightAware Approximate
Wed 12:02:00 PM 19.3414 -72.7446 329° Northwest  Level FlightAware Approximate
Wed 12:03:00 PM 19.3913 -72.7736 332° Northwest  Level FlightAware Approximate
Wed 12:04:00 PM 19.4415 -72.8023 332° Northwest  Level FlightAware Approximate
Wed 12:05:00 PM 19.4923 -72.8295 335° Northwest  Level FlightAware Approximate
Wed 12:06:00 PM 19.5438 -72.8552 335° Northwest  Level FlightAware Approximate
Wed 12:07:00 PM 19.5941 -72.8835 330° Northwest  Level FlightAware Approximate
Wed 12:08:00 PM 19.6434 -72.9139 330° Northwest  Level FlightAware Approximate
Wed 12:09:00 PM 19.6926 -72.9442 330° Northwest  Level FlightAware Approximate
Wed 12:10:00 PM 19.7419 -72.9746 330° Northwest  Level FlightAware Approximate
Wed 12:11:00 PM 19.7911 -73.0050 330° Northwest  Level FlightAware Approximate
Wed 12:12:00 PM 19.8404 -73.0354 330° Northwest  Level FlightAware Approximate
Wed 12:13:00 PM 19.8896 -73.0658 330° Northwest  Level FlightAware Approximate
Wed 12:14:00 PM 19.9389 -73.0962 330° Northwest  Level FlightAware Approximate
Wed 12:15:00 PM 19.9881 -73.1267 330° Northwest  Level FlightAware Approximate
Wed 12:16:00 PM 20.0373 -73.1572 330° Northwest  Level FlightAware Approximate
Wed 12:17:00 PM 20.0865 -73.1877 330° Northwest  Level FlightAware Approximate
Wed 12:18:00 PM 20.1355 -73.2186 320° Northwest  Level FlightAware Approximate
Wed 12:19:00 PM 20.1791 -73.2575 320° Northwest  Level FlightAware Approximate
Wed 12:20:00 PM 20.2228 -73.2965 320° Northwest  Level FlightAware Approximate
Wed 12:20:43 PM 20.4403 -73.4897 320° Northwest 239 275 24,000  Level Miami Center
Wed 12:21:00 PM 20.2664 -73.3355 320° Northwest  Level FlightAware Approximate
Wed 12:21:43 PM 20.5103 -73.5544 319° Northwest 281 323 24,000  Level Miami Center
Wed 12:22:00 PM 20.3100 -73.3745 320° Northwest  Level FlightAware Approximate
Wed 12:22:43 PM 20.5828 -73.6192 320° Northwest 319 367 24,000  Level Miami Center
Wed 12:23:43 PM 20.6550 -73.6817 321° Northwest 329 379 24,000  Level Miami Center
Wed 12:24:43 PM 20.7272 -73.7467 320° Northwest 335 386 24,000  Level Miami Center
Wed 12:25:55 PM 20.8142 -73.8222 321° Northwest 341 392 24,000  Level Miami Center
Wed 12:26:55 PM 20.8844 -73.8872 319° Northwest 336 387 24,000  Level Miami Center
Wed 12:27:55 PM 20.9567 -73.9525 320° Northwest 336 387 24,000  Level Miami Center
Wed 12:28:55 PM 21.0289 -74.0175 320° Northwest 336 387 24,000  Level Miami Center
Wed 12:29:55 PM 21.0989 -74.0806 320° Northwest 336 387 24,000  Level Miami Center
Wed 12:30:55 PM 21.1731 -74.1481 320° Northwest 336 387 24,000  Level Miami Center
Wed 12:31:55 PM 21.2431 -74.2111 320° Northwest 336 387 24,000  Level Miami Center
Wed 12:32:55 PM 21.3150 -74.2744 321° Northwest 342 394 24,000  Level Miami Center
Wed 12:33:55 PM 21.3850 -74.3400 319° Northwest 337 388 24,000  Level Miami Center
Wed 12:34:55 PM 21.4550 -74.4033 320° Northwest 332 382 24,000  Level Miami Center
Wed 12:35:55 PM 21.5250 -74.4644 321° Northwest 332 382 24,000  Level Miami Center
Wed 12:36:55 PM 21.5969 -74.5322 319° Northwest 332 382 24,000  Level Miami Center
Wed 12:37:55 PM 21.6689 -74.5958 321° Northwest 332 382 24,000  Level Miami Center
Wed 12:38:55 PM 21.7239 -74.6464 320° Northwest 332 382 24,000  Level Miami Center
Wed 12:39:55 PM 21.8000 -74.7167 319° Northwest 332 382 24,000  Level Miami Center
Wed 12:40:55 PM 21.8700 -74.7803 320° Northwest 332 382 24,000  Level Miami Center
Wed 12:41:55 PM 21.9375 -74.8464 318° Northwest 332 382 24,000  Level Miami Center
Wed 12:42:55 PM 22.0117 -74.9081 322° Northwest 332 382 24,000  Level Miami Center
Wed 12:43:55 PM 22.0814 -74.9719 320° Northwest 332 382 24,000  Level Miami Center
Wed 12:44:55 PM 22.1531 -75.0361 320° Northwest 332 382 24,000  Level Miami Center
Wed 12:45:55 PM 22.2103 -75.1069 311° West 325 374 24,000  Level Miami Center
Wed 12:46:55 PM 22.2656 -75.1803 309° West 325 374 24,000  Level Miami Center
Wed 12:47:55 PM 22.3186 -75.2558 307° West 325 374 24,000  Level Miami Center
Wed 12:48:55 PM 22.3714 -75.3317 307° West 319 367 24,000  Level Miami Center
Wed 12:49:55 PM 22.4244 -75.4053 308° West 314 361 24,000  Level Miami Center
Wed 12:50:55 PM 22.4794 -75.4811 308° West 314 361 24,000  Level Miami Center
Wed 12:51:55 PM 22.5303 -75.5547 307° West 314 361 24,000  Level Miami Center
Wed 12:52:55 PM 22.5853 -75.6328 307° West 314 361 24,000  Level Miami Center
Wed 12:53:55 PM 22.6444 -75.7133 309° West 314 361 24,000  Level Miami Center
Wed 12:54:55 PM 22.6972 -75.7872 308° West 314 361 24,000  Level Miami Center
Wed 12:55:55 PM 22.7478 -75.8611 307° West 314 361 24,000  Level Miami Center
Wed 12:56:55 PM 22.8006 -75.9350 308° West 314 361 24,000  Level Miami Center
Wed 12:57:55 PM 22.8531 -76.0089 308° West 314 361 24,000  Level Miami Center
Wed 12:58:55 PM 22.9058 -76.0808 309° West 309 356 24,000  Level Miami Center
Wed 12:59:55 PM 22.9564 -76.1528 307° West 309 356 24,000  Level Miami Center
Wed 01:00:55 PM 23.0067 -76.2269 306° West 309 356 24,000  Level Miami Center
Wed 01:01:55 PM 23.0594 -76.2989 309° West 309 356 24,000  Level Miami Center
Wed 01:02:55 PM 23.1097 -76.3711 307° West 309 356 24,000  Level Miami Center
Wed 01:03:55 PM 23.1622 -76.4453 308° West 309 356 24,000  Level Miami Center
Wed 01:04:55 PM 23.2147 -76.5175 308° West 309 356 24,000  Level Miami Center
Wed 01:05:55 PM 23.2628 -76.5919 305° West 309 356 24,000  Level Miami Center
Wed 01:06:55 PM 23.3153 -76.6644 308° West 309 356 24,000  Level Miami Center
Wed 01:07:55 PM 23.3569 -76.7231 308° West 309 356 24,000  Level Miami Center
Wed 01:08:55 PM 23.4114 -76.8022 307° West 309 356 24,000  Level Miami Center
Wed 01:09:55 PM 23.4636 -76.8769 307° West 309 356 24,000  Level Miami Center
Wed 01:10:55 PM 23.5139 -76.9494 307° West 309 356 24,000  Level Miami Center
Wed 01:11:55 PM 23.5619 -77.0222 306° West 309 356 24,000  Level Miami Center
Wed 01:12:55 PM 23.6139 -77.0947 308° West 309 356 24,000  Level Miami Center
Wed 01:13:55 PM 23.6536 -77.1561 305° West 309 356 24,000  Level Miami Center
Wed 01:14:55 PM 23.7244 -77.2517 309° West 315 362 24,000  Level Miami Center
Wed 01:15:55 PM 23.7744 -77.3197 309° West 305 351 24,000  Level Miami Center
Wed 01:16:55 PM 23.8222 -77.3994 303° West 310 357 24,000  Level Miami Center
Wed 01:17:55 PM 23.8742 -77.4678 310° West 305 351 24,000  Level Miami Center
Wed 01:18:55 PM 23.9136 -77.5272 306° West 305 351 24,000  Level Miami Center
Wed 01:19:55 PM 23.9697 -77.6117 306° West 305 351 24,000  Level Miami Center
Wed 01:20:55 PM 24.0194 -77.6803 308° West 305 351 24,000  Level Miami Center
Wed 01:21:55 PM 24.0714 -77.7578 306° West 307 353 24,000  Level Miami Center
Wed 01:22:55 PM 24.1208 -77.8333 306° West 307 353 24,000  Level Miami Center
Wed 01:23:55 PM 24.1728 -77.9067 308° West 312 359 24,000  Level Miami Center
Wed 01:24:55 PM 24.2244 -77.9800 308° West 307 353 24,000  Level Miami Center
Wed 01:25:55 PM 24.2739 -78.0556 306° West 307 353 24,000  Level Miami Center
Wed 01:26:55 PM 24.3236 -78.1292 307° West 307 353 24,000  Level Miami Center
Wed 01:27:55 PM 24.3753 -78.2025 308° West 307 353 24,000  Level Miami Center
Wed 01:28:55 PM 24.4247 -78.2761 306° West 307 353 24,000  Level Miami Center
Wed 01:29:55 PM 24.4742 -78.3522 306° West 307 353 24,000  Level Miami Center
Wed 01:30:55 PM 24.5275 -78.4258 309° West 312 359 24,000  Level Miami Center
Wed 01:31:55 PM 24.5708 -78.4972 304° West 299 344 24,000  Level Miami Center
Wed 01:32:55 PM 24.6242 -78.5733 308° West 299 344 24,000  Level Miami Center
Wed 01:33:55 PM 24.6714 -78.6450 306° West 305 351 24,000  Level Miami Center
Wed 01:34:55 PM 24.7228 -78.7189 307° West 300 345 24,000  Level Miami Center
Wed 01:35:55 PM 24.7719 -78.7928 306° West 300 345 24,000 -200 Level Miami Center
Wed 01:36:55 PM 24.8211 -78.8669 306° West 300 345 23,600 -950 Descending Miami Center
Wed 01:37:55 PM 24.8764 -78.9525 305° West 300 345 22,100 -1,450 Descending Miami Center
Wed 01:38:55 PM 24.9233 -79.0244 306° West 300 345 20,700 -1,400 Descending Miami Center
Wed 01:39:55 PM 24.9725 -79.0939 308° West 295 339 19,300 -1,400 Descending Miami Center
Wed 01:40:55 PM 25.0217 -79.1636 308° West 295 339 17,900 -1,300 Descending Miami Center
Wed 01:41:55 PM 25.0664 -79.2378 304° West 295 339 16,700 -1,200 Descending Miami Center
Wed 01:42:55 PM 25.1153 -79.3100 307° West 290 334 15,500 -1,250 Descending Miami Center
Wed 01:43:55 PM 25.1622 -79.3819 306° West 296 341 14,200 -1,200 Descending Miami Center
Wed 01:44:55 PM 25.2092 -79.4519 307° West 296 341 13,100 -1,150 Descending Miami Center
Wed 01:45:55 PM 25.2539 -79.5194 306° West 291 335 11,900 -1,200 Descending Miami Center
Wed 01:46:55 PM 25.2986 -79.5894 305° West 286 329 10,700 -1,268 Descending Miami Center
Wed 01:47:06 PM 25.3086 -79.6033 309° West 274 315 10,400 -1,100 Descending Miami Center
Wed 01:47:55 PM 25.3433 -79.6569 306° West 286 329 9,600 -971 Descending Miami Center
Wed 01:48:14 PM 25.3553 -79.6781 302° West 272 313 9,300 -500 Descending Miami Center
Wed 01:48:55 PM 25.3878 -79.7247 308° West 286 329 9,100 -197 Descending Miami Center
Wed 01:49:15 PM 25.4000 -79.7458 303° West 271 312 9,100 -100 Level Miami Center
Wed 01:49:55 PM 25.4325 -79.7925 308° West 281 323 9,000 -98 Descending Miami Center
Wed 01:50:16 PM 25.4486 -79.8183 305° West 278 320 9,000  Level Miami Center
Wed 01:50:55 PM 25.4792 -79.8581 310° West 281 323 9,000  Level Miami Center
Wed 01:51:17 PM 25.4933 -79.8861 299° West 274 315 9,000  Level Miami Center
Wed 01:51:55 PM 25.5239 -79.9261 310° West 275 316 9,000  Level Miami Center
Wed 01:52:18 PM 25.5400 -79.9564 301° West 270 311 9,000  Level Miami Center
Wed 01:52:55 PM 25.5664 -79.9939 308° West 275 316 9,000  Level Miami Center
Wed 01:53:19 PM 25.5825 -80.0219 302° West 270 311 9,000 -500 Level Miami Center
Wed 01:53:55 PM 25.6108 -80.0619 308° West 270 311 8,500 -885 Descending Miami Center
Wed 01:54:20 PM 25.6247 -80.0900 299° West 267 307 8,100 -400 Descending Miami Center
Wed 01:54:55 PM 25.6492 -80.1206 312° West 270 311 8,100 -90 Level Miami Center
Wed 01:55:27 PM 25.6669 -80.1694 292° West 273 314 8,000 -323 Descending Miami Center
Wed 01:56:28 PM 25.6858 -80.2528 284° West 270 311 7,600 -1,179 Descending Miami Center
Wed 01:57:24 PM 25.7053 -80.3203 288° West 246 283 5,700 -2,000 Descending Miami Center
Wed 01:58:25 PM 25.7203 -80.3875 284° West 220 253 3,700 -1,574 Descending Miami Center
Wed 01:59:26 PM 25.7356 -80.4433 287° West 206 237 2,500 -590 Descending Miami Center
Wed 02:00:27 PM 25.7758 -80.4192 28° Northeast 176 203 2,500 -207 Level Miami Center
Wed 02:01:22 PM 25.7956 -80.3828 59° Northeast 141 162 2,100 -621 Descending Miami Center
Wed 02:02:23 PM 25.7986 -80.3392 86° East 125 144 1,300 -787 Descending Miami Center
Wed 02:04:00 PM 25.7954 -80.2901 90° East  Level Estimated
Wed 02:11:00 PM 25.7954 -80.2901 90° East  Level Estimated

Login

Don't have an account? Register now (free) for customized features, flight alerts, and more!